createdAt,value
2022-11-17T00:02:08.619Z,61.72
2022-11-17T00:04:35.364Z,61.85
2022-11-17T00:07:02.174Z,62.00
2022-11-17T00:09:28.934Z,62.05
2022-11-17T00:12:16.968Z,62.04
2022-11-17T00:14:45.917Z,61.99
2022-11-17T00:17:13.683Z,62.26
2022-11-17T00:19:59.178Z,62.19
2022-11-17T00:22:26.595Z,62.40
2022-11-17T00:24:53.268Z,62.27
2022-11-17T00:27:20.106Z,62.28
2022-11-17T00:29:47.286Z,62.29
2022-11-17T00:32:34.290Z,62.25
2022-11-17T00:35:01.235Z,62.35
2022-11-17T00:37:30.265Z,62.49
2022-11-17T00:40:00.766Z,62.24
2022-11-17T00:42:28.081Z,62.35
2022-11-17T00:44:54.958Z,62.23
2022-11-17T00:47:21.847Z,62.45
2022-11-17T00:49:49.036Z,62.66
2022-11-17T00:52:15.876Z,62.50
2022-11-17T00:54:42.572Z,62.57
2022-11-17T00:57:09.382Z,62.62
2022-11-17T00:59:36.120Z,62.62
2022-11-17T01:02:03.062Z,62.71
2022-11-17T01:04:29.904Z,62.66
2022-11-17T01:06:56.752Z,62.71
2022-11-17T01:09:24.242Z,62.72
2022-11-17T01:11:53.130Z,62.73
2022-11-17T01:14:25.085Z,62.61
2022-11-17T01:16:52.179Z,62.60
2022-11-17T01:19:19.519Z,62.41
2022-11-17T01:21:46.972Z,62.39
2022-11-17T01:24:16.408Z,62.69
2022-11-17T01:26:43.662Z,62.97
2022-11-17T01:29:13.080Z,62.70
2022-11-17T01:31:43.283Z,62.63
2022-11-17T01:34:10.554Z,62.76
2022-11-17T01:36:58.578Z,62.99
2022-11-17T01:39:27.609Z,62.98
2022-11-17T01:41:55.380Z,62.76
2022-11-17T01:44:53.227Z,62.99
2022-11-17T01:47:22.112Z,62.99
2022-11-17T01:49:52.173Z,63.07
2022-11-17T01:52:19.246Z,63.35
2022-11-17T01:54:48.845Z,62.87
2022-11-17T01:57:43.233Z,63.06
2022-11-17T02:00:11.611Z,63.11
2022-11-17T02:02:41.074Z,62.98
2022-11-17T02:05:26.406Z,63.25
2022-11-17T02:07:55.381Z,63.04
2022-11-17T02:10:22.286Z,63.13
2022-11-17T02:12:49.753Z,62.99
2022-11-17T02:15:16.865Z,63.04
2022-11-17T02:17:44.345Z,63.01
2022-11-17T02:20:36.258Z,62.89
2022-11-17T02:23:35.705Z,62.82
2022-11-17T02:26:31.458Z,62.69
2022-11-17T02:29:09.573Z,62.99
2022-11-17T02:31:52.181Z,62.91
2022-11-17T02:34:18.990Z,63.00
2022-11-17T02:36:58.996Z,63.17
2022-11-17T02:39:28.349Z,62.79
2022-11-17T02:42:01.337Z,63.05
2022-11-17T02:44:45.475Z,63.15
2022-11-17T02:47:24.388Z,62.93
2022-11-17T02:50:01.032Z,62.73
2022-11-17T02:52:30.213Z,62.71
2022-11-17T02:55:05.569Z,62.68
2022-11-17T02:57:35.538Z,62.81
2022-11-17T03:00:09.747Z,63.08
2022-11-17T03:02:58.151Z,63.17
2022-11-17T03:05:34.594Z,63.23
2022-11-17T03:08:13.632Z,63.00
2022-11-17T03:11:02.940Z,62.74
2022-11-17T03:13:54.708Z,62.99
2022-11-17T03:16:57.309Z,63.11
2022-11-17T03:19:37.994Z,62.95
2022-11-17T03:22:23.379Z,63.07
2022-11-17T03:24:52.880Z,63.24
2022-11-17T03:27:25.561Z,63.24
2022-11-17T03:29:56.267Z,62.95
2022-11-17T03:32:25.054Z,63.04
2022-11-17T03:35:06.105Z,63.17
2022-11-17T03:37:36.638Z,63.02
2022-11-17T03:40:08.783Z,62.93
2022-11-17T03:42:39.410Z,63.08
2022-11-17T03:45:06.696Z,63.14
2022-11-17T03:47:35.051Z,63.23
2022-11-17T03:50:16.648Z,63.20
2022-11-17T03:52:45.677Z,63.18
2022-11-17T03:55:14.029Z,63.21
2022-11-17T03:57:51.829Z,63.38
2022-11-17T04:00:20.008Z,62.84
2022-11-17T04:02:53.677Z,63.08
2022-11-17T04:05:20.405Z,63.10
2022-11-17T04:07:49.128Z,63.07
2022-11-17T04:10:22.184Z,62.79
2022-11-17T04:13:08.235Z,62.84
2022-11-17T04:15:54.041Z,62.89
2022-11-17T04:18:22.015Z,63.00
2022-11-17T04:20:56.048Z,63.16
2022-11-17T04:23:24.586Z,63.02
2022-11-17T04:26:12.314Z,62.99
2022-11-17T04:28:43.949Z,63.27
2022-11-17T04:31:13.978Z,63.14
2022-11-17T04:33:45.440Z,63.11
2022-11-17T04:36:14.160Z,63.12
2022-11-17T04:38:42.995Z,63.32
2022-11-17T04:41:30.017Z,63.22
2022-11-17T04:43:57.895Z,63.28
2022-11-17T04:46:25.849Z,62.87
2022-11-17T04:48:56.969Z,63.11
2022-11-17T04:51:24.866Z,63.21
2022-11-17T04:53:52.389Z,63.17
2022-11-17T04:56:20.475Z,63.38
2022-11-17T04:58:47.591Z,63.29
2022-11-17T05:01:16.570Z,63.39
2022-11-17T05:03:43.209Z,63.23
2022-11-17T05:06:18.660Z,62.90
2022-11-17T05:08:45.596Z,63.32
2022-11-17T05:11:32.403Z,63.30
2022-11-17T05:13:59.678Z,63.37
2022-11-17T05:16:45.477Z,63.09
2022-11-17T05:19:18.474Z,63.43
2022-11-17T05:21:45.390Z,63.38
2022-11-17T05:24:14.397Z,63.28
2022-11-17T05:26:42.899Z,63.21
2022-11-17T05:29:11.711Z,63.29
2022-11-17T05:31:38.923Z,63.11
2022-11-17T05:34:08.341Z,63.28
2022-11-17T05:36:35.567Z,63.04
2022-11-17T05:39:02.426Z,63.14
2022-11-17T05:41:29.257Z,63.13
2022-11-17T05:43:56.230Z,62.99
2022-11-17T05:46:23.549Z,62.92
2022-11-17T05:48:51.311Z,63.23
2022-11-17T05:51:20.426Z,63.00
2022-11-17T05:53:48.747Z,63.32
2022-11-17T05:56:25.302Z,63.63
2022-11-17T05:58:55.262Z,63.30
2022-11-17T06:01:23.092Z,62.84
2022-11-17T06:03:56.193Z,62.78
2022-11-17T06:06:23.449Z,62.91
2022-11-17T06:08:51.013Z,62.75
2022-11-17T06:11:19.094Z,63.04
2022-11-17T06:13:46.064Z,63.06
2022-11-17T06:16:16.280Z,63.29
2022-11-17T06:18:50.683Z,63.08
2022-11-17T06:21:17.982Z,63.20
2022-11-17T06:23:47.438Z,63.47
2022-11-17T06:26:14.961Z,63.58
2022-11-17T06:28:45.595Z,63.50
2022-11-17T06:31:13.339Z,63.35
2022-11-17T06:33:40.191Z,63.42
2022-11-17T06:36:08.790Z,63.29
2022-11-17T06:38:36.556Z,63.39
2022-11-17T06:41:08.893Z,63.21
2022-11-17T06:43:38.809Z,63.44
2022-11-17T06:46:06.068Z,63.54
2022-11-17T06:48:36.329Z,63.26
2022-11-17T06:51:05.190Z,63.15
2022-11-17T06:53:34.070Z,63.47
2022-11-17T06:56:11.861Z,63.58
2022-11-17T06:58:41.440Z,63.78
2022-11-17T07:01:11.396Z,63.72
2022-11-17T07:03:40.214Z,63.53
2022-11-17T07:06:08.998Z,63.73
2022-11-17T07:08:36.436Z,63.50
2022-11-17T07:11:05.431Z,63.23
2022-11-17T07:13:33.676Z,63.35
2022-11-17T07:16:23.758Z,63.19
2022-11-17T07:18:52.481Z,63.36
2022-11-17T07:21:19.465Z,63.24
2022-11-17T07:23:47.354Z,63.28
2022-11-17T07:26:14.510Z,62.99
2022-11-17T07:28:44.438Z,62.80
2022-11-17T07:31:12.553Z,62.96
2022-11-17T07:33:44.852Z,62.79
2022-11-17T07:36:21.758Z,62.78
2022-11-17T07:38:48.940Z,63.04
2022-11-17T07:41:21.594Z,62.97
2022-11-17T07:43:48.447Z,62.83
2022-11-17T07:46:15.483Z,63.04
2022-11-17T07:48:43.788Z,62.89
2022-11-17T07:51:14.191Z,62.92
2022-11-17T07:53:47.209Z,62.86
2022-11-17T07:56:14.485Z,62.93
2022-11-17T07:58:42.013Z,62.72
2022-11-17T08:01:14.715Z,62.72
2022-11-17T08:03:42.956Z,62.84
2022-11-17T08:06:14.872Z,62.66
2022-11-17T08:08:48.547Z,62.54
2022-11-17T08:11:19.666Z,62.73
2022-11-17T08:13:58.299Z,62.92
2022-11-17T08:16:36.147Z,62.64
2022-11-17T08:19:07.480Z,62.38
2022-11-17T08:21:38.660Z,62.60
2022-11-17T08:24:06.420Z,62.69
2022-11-17T08:26:36.536Z,62.55
2022-11-17T08:29:03.593Z,62.64
2022-11-17T08:31:33.117Z,62.55
2022-11-17T08:34:08.616Z,62.47
2022-11-17T08:36:38.922Z,62.39
2022-11-17T08:39:08.196Z,62.47
2022-11-17T08:41:40.902Z,62.08
2022-11-17T08:44:07.868Z,62.50
2022-11-17T08:46:34.791Z,62.59
2022-11-17T08:49:02.076Z,62.77
2022-11-17T08:51:33.600Z,62.63
2022-11-17T08:54:00.734Z,62.59
2022-11-17T08:56:29.978Z,62.26
2022-11-17T08:58:57.227Z,62.53
2022-11-17T09:01:24.123Z,62.77
2022-11-17T09:03:56.661Z,62.94
2022-11-17T09:06:27.881Z,62.39
2022-11-17T09:08:55.560Z,62.44
2022-11-17T09:11:22.960Z,62.63
2022-11-17T09:13:49.810Z,62.35
2022-11-17T09:16:23.964Z,62.29
2022-11-17T09:19:02.477Z,62.19
2022-11-17T09:21:36.952Z,62.16
2022-11-17T09:24:21.245Z,62.04
2022-11-17T09:26:48.560Z,61.99
2022-11-17T09:29:15.442Z,61.82
2022-11-17T09:31:45.275Z,61.74
2022-11-17T09:34:16.834Z,61.69
2022-11-17T09:36:46.190Z,61.50
2022-11-17T09:39:13.144Z,61.65
2022-11-17T09:41:46.345Z,62.10
2022-11-17T09:44:28.439Z,61.45
2022-11-17T09:47:01.535Z,61.65
2022-11-17T09:49:47.184Z,61.74
2022-11-17T09:52:52.723Z,61.39
2022-11-17T09:55:33.943Z,61.56
2022-11-17T09:58:06.131Z,61.86
2022-11-17T10:00:41.846Z,61.73
2022-11-17T10:03:21.268Z,61.42
2022-11-17T10:05:49.466Z,61.36
2022-11-17T10:08:28.831Z,61.25
2022-11-17T10:10:55.639Z,61.17
2022-11-17T10:13:28.053Z,61.25
2022-11-17T10:16:07.614Z,61.15
2022-11-17T10:18:42.823Z,60.89
2022-11-17T10:21:09.756Z,60.80
2022-11-17T10:23:47.153Z,61.00
2022-11-17T10:26:15.828Z,61.06
2022-11-17T10:28:44.619Z,60.88
2022-11-17T10:31:17.323Z,60.91
2022-11-17T10:33:51.719Z,60.61
2022-11-17T10:36:26.813Z,60.71
2022-11-17T10:38:56.051Z,60.57
2022-11-17T10:41:26.923Z,60.33
2022-11-17T10:44:13.522Z,60.71
2022-11-17T10:47:03.023Z,60.42
2022-11-17T10:49:35.394Z,60.61
2022-11-17T10:52:13.773Z,60.55
2022-11-17T10:54:41.062Z,60.52
2022-11-17T10:57:12.486Z,60.33
2022-11-17T10:59:43.629Z,60.34
2022-11-17T11:02:33.060Z,60.30
2022-11-17T11:05:17.260Z,60.49
2022-11-17T11:07:44.630Z,60.41
2022-11-17T11:10:17.573Z,60.36
2022-11-17T11:12:59.392Z,60.21
2022-11-17T11:15:34.545Z,60.51
2022-11-17T11:18:02.057Z,60.77
2022-11-17T11:20:48.278Z,61.20
2022-11-17T11:23:20.028Z,61.18
2022-11-17T11:26:11.594Z,61.26
2022-11-17T11:28:54.264Z,60.90
2022-11-17T11:31:36.553Z,60.37
2022-11-17T11:34:19.670Z,60.70
2022-11-17T11:37:04.001Z,60.29
2022-11-17T11:39:39.896Z,59.94
2022-11-17T11:42:34.664Z,60.17
2022-11-17T11:45:18.390Z,60.31
2022-11-17T11:48:01.195Z,59.80
2022-11-17T11:50:41.880Z,60.07
2022-11-17T11:53:18.925Z,59.75
2022-11-17T11:55:49.705Z,59.61
2022-11-17T11:58:23.872Z,60.11
2022-11-17T12:00:53.890Z,60.32
2022-11-17T12:03:28.539Z,60.49
2022-11-17T12:06:40.909Z,60.20
2022-11-17T12:09:48.733Z,60.30
2022-11-17T12:12:19.615Z,60.14
2022-11-17T12:15:21.946Z,60.39
2022-11-17T12:18:29.470Z,60.35
2022-11-17T12:21:01.324Z,60.53
2022-11-17T12:23:38.297Z,60.37
2022-11-17T12:26:05.559Z,60.32
2022-11-17T12:28:38.363Z,60.45
2022-11-17T12:31:32.156Z,60.26
2022-11-17T12:34:01.756Z,60.22
2022-11-17T12:36:32.158Z,59.93
2022-11-17T12:39:01.237Z,60.42
2022-11-17T12:41:49.259Z,60.18
2022-11-17T12:44:37.687Z,60.26
2022-11-17T12:47:14.138Z,60.19
2022-11-17T12:49:49.024Z,60.36
2022-11-17T12:52:27.083Z,60.24
2022-11-17T12:55:05.935Z,60.36
2022-11-17T12:57:34.335Z,60.12
2022-11-17T13:00:05.572Z,60.17
2022-11-17T13:02:47.597Z,59.77
2022-11-17T13:05:20.339Z,60.16
2022-11-17T13:07:47.304Z,60.13
2022-11-17T13:10:31.653Z,60.07
2022-11-17T13:13:20.642Z,60.14
2022-11-17T13:15:58.897Z,59.87
2022-11-17T13:18:36.479Z,59.74
2022-11-17T13:21:05.494Z,60.28
2022-11-17T13:23:33.754Z,59.81
2022-11-17T13:26:26.904Z,60.07
2022-11-17T13:29:24.279Z,59.93
2022-11-17T13:32:14.860Z,59.87
2022-11-17T13:34:52.549Z,60.07
2022-11-17T13:37:25.681Z,59.86
2022-11-17T13:39:58.882Z,60.13
2022-11-17T13:42:29.387Z,60.25
2022-11-17T13:44:59.254Z,60.36
2022-11-17T13:47:38.029Z,59.99
2022-11-17T13:50:26.835Z,59.84
2022-11-17T13:53:12.120Z,59.86
2022-11-17T13:55:48.394Z,59.74
2022-11-17T13:58:28.076Z,59.84
2022-11-17T14:00:57.835Z,59.61
2022-11-17T14:03:38.115Z,59.57
2022-11-17T14:06:07.857Z,59.73
2022-11-17T14:08:36.607Z,59.50
2022-11-17T14:11:12.003Z,59.73
2022-11-17T14:14:12.491Z,59.81
2022-11-17T14:16:41.680Z,59.43
2022-11-17T14:19:14.392Z,59.36
2022-11-17T14:22:27.557Z,59.36
2022-11-17T14:24:57.788Z,59.34
2022-11-17T14:27:27.674Z,59.45
2022-11-17T14:29:55.220Z,59.59
2022-11-17T14:32:22.015Z,59.67
2022-11-17T14:34:49.080Z,59.55
2022-11-17T14:37:16.165Z,59.60
2022-11-17T14:39:43.430Z,59.67
2022-11-17T14:42:13.860Z,59.87
2022-11-17T14:44:40.779Z,59.47
2022-11-17T14:47:07.859Z,59.46
2022-11-17T14:49:34.599Z,59.81
2022-11-17T14:52:02.753Z,59.48
2022-11-17T14:54:29.688Z,59.63
2022-11-17T14:56:56.550Z,59.83
2022-11-17T14:59:23.314Z,59.66
2022-11-17T15:01:50.044Z,59.93
2022-11-17T15:04:48.125Z,59.88
2022-11-17T15:07:03.735Z,59.69
2022-11-17T15:09:30.635Z,59.80
2022-11-17T15:11:57.540Z,60.04
2022-11-17T15:14:24.852Z,59.62
2022-11-17T15:16:52.255Z,60.12
2022-11-17T15:19:19.332Z,59.82
2022-11-17T15:21:46.128Z,59.63
2022-11-17T15:24:13.676Z,59.95
2022-11-17T15:26:40.842Z,59.63
2022-11-17T15:29:07.627Z,59.56
2022-11-17T15:31:34.840Z,59.95
2022-11-17T15:34:01.777Z,59.56
2022-11-17T15:36:28.526Z,59.63
2022-11-17T15:38:56.499Z,60.02
2022-11-17T15:41:25.454Z,59.59
2022-11-17T15:43:55.526Z,59.90
2022-11-17T15:46:22.791Z,60.23
2022-11-17T15:48:52.573Z,60.17
2022-11-17T15:51:24.698Z,59.89
2022-11-17T15:53:53.462Z,60.06
2022-11-17T15:56:28.692Z,59.81
2022-11-17T15:58:58.259Z,59.76
2022-11-17T16:01:25.057Z,59.85
2022-11-17T16:03:53.388Z,59.69
2022-11-17T16:06:20.703Z,59.76
2022-11-17T16:08:47.458Z,59.85
2022-11-17T16:11:14.204Z,60.11
2022-11-17T16:13:41.088Z,60.05
2022-11-17T16:16:12.267Z,59.93
2022-11-17T16:18:39.371Z,59.57
2022-11-17T16:21:11.850Z,60.08
2022-11-17T16:23:49.656Z,60.11
2022-11-17T16:26:18.155Z,60.11
2022-11-17T16:28:48.759Z,60.13
2022-11-17T16:31:24.793Z,60.05
2022-11-17T16:33:58.972Z,59.83
2022-11-17T16:36:35.844Z,60.13
2022-11-17T16:39:05.112Z,60.23
2022-11-17T16:41:34.416Z,59.86
2022-11-17T16:44:01.935Z,59.81
2022-11-17T16:46:30.593Z,60.18
2022-11-17T16:49:01.911Z,60.17
2022-11-17T16:51:28.837Z,60.06
2022-11-17T16:54:00.880Z,59.99
2022-11-17T16:56:28.340Z,59.91
2022-11-17T16:58:55.394Z,59.82
2022-11-17T17:01:24.585Z,60.18
2022-11-17T17:03:59.600Z,60.05
2022-11-17T17:06:27.332Z,60.00
2022-11-17T17:08:55.974Z,60.15
2022-11-17T17:11:23.232Z,59.97
2022-11-17T17:13:50.368Z,60.22
2022-11-17T17:16:19.733Z,60.32
2022-11-17T17:18:46.534Z,59.89
2022-11-17T17:21:18.894Z,60.17
2022-11-17T17:23:46.195Z,59.91
2022-11-17T17:26:17.557Z,60.36
2022-11-17T17:28:48.733Z,59.98
2022-11-17T17:31:21.972Z,60.22
2022-11-17T17:33:50.809Z,60.16
2022-11-17T17:36:22.474Z,60.22
2022-11-17T17:38:55.409Z,60.69
2022-11-17T17:41:25.286Z,60.59
2022-11-17T17:43:58.352Z,60.94
2022-11-17T17:46:26.079Z,60.55
2022-11-17T17:48:52.979Z,60.74
2022-11-17T17:51:21.414Z,60.28
2022-11-17T17:53:50.244Z,60.47
2022-11-17T17:56:19.688Z,60.26
2022-11-17T17:58:48.795Z,60.38
2022-11-17T18:01:20.996Z,60.39
2022-11-17T18:04:11.264Z,60.19
2022-11-17T18:06:42.836Z,60.29
2022-11-17T18:09:10.953Z,60.42
2022-11-17T18:11:45.772Z,60.06
2022-11-17T18:14:13.457Z,60.32
2022-11-17T18:16:40.964Z,60.13
2022-11-17T18:19:09.349Z,60.31
2022-11-17T18:21:36.580Z,59.77
2022-11-17T18:24:04.294Z,60.24
2022-11-17T18:26:35.641Z,60.29
2022-11-17T18:29:05.035Z,60.11
2022-11-17T18:31:33.824Z,59.93
2022-11-17T18:34:03.737Z,59.92
2022-11-17T18:36:30.989Z,60.19
2022-11-17T18:38:58.758Z,60.16
2022-11-17T18:41:27.338Z,60.27
2022-11-17T18:43:54.970Z,60.30
2022-11-17T18:46:23.551Z,60.34
2022-11-17T18:48:51.911Z,60.04
2022-11-17T18:51:21.423Z,60.05
2022-11-17T18:53:50.063Z,60.35
2022-11-17T18:56:19.277Z,60.39
2022-11-17T18:58:46.472Z,60.07
2022-11-17T19:01:17.213Z,60.30
2022-11-17T19:03:45.952Z,60.17
2022-11-17T19:06:14.213Z,60.32
2022-11-17T19:08:41.474Z,59.94
2022-11-17T19:11:09.746Z,60.07
2022-11-17T19:13:39.166Z,60.11
2022-11-17T19:16:09.373Z,60.12
2022-11-17T19:18:36.698Z,60.33
2022-11-17T19:21:12.228Z,60.21
2022-11-17T19:23:44.414Z,60.06
2022-11-17T19:26:16.222Z,60.27
2022-11-17T19:28:44.340Z,60.24
2022-11-17T19:31:14.056Z,60.27
2022-11-17T19:33:42.156Z,60.41
2022-11-17T19:36:18.122Z,60.17
2022-11-17T19:38:48.363Z,60.07
2022-11-17T19:41:21.334Z,59.91
2022-11-17T19:43:48.943Z,60.08
2022-11-17T19:46:17.222Z,60.03
2022-11-17T19:48:44.555Z,60.28
2022-11-17T19:51:31.781Z,60.22
2022-11-17T19:54:02.274Z,60.18
2022-11-17T19:56:29.360Z,60.08
2022-11-17T19:58:58.017Z,60.29
2022-11-17T20:01:27.680Z,60.34
2022-11-17T20:03:55.812Z,60.34
2022-11-17T20:06:27.378Z,60.26
2022-11-17T20:08:56.111Z,60.46
2022-11-17T20:11:27.862Z,60.51
2022-11-17T20:13:56.199Z,60.42
2022-11-17T20:16:27.410Z,60.23
2022-11-17T20:19:00.292Z,60.27
2022-11-17T20:21:29.260Z,60.18
2022-11-17T20:23:57.462Z,60.27
2022-11-17T20:26:27.469Z,60.27
2022-11-17T20:28:55.354Z,59.85
2022-11-17T20:31:24.528Z,60.33
2022-11-17T20:33:52.321Z,60.31
2022-11-17T20:36:21.517Z,60.30
2022-11-17T20:38:52.553Z,60.39
2022-11-17T20:41:21.090Z,60.40
2022-11-17T20:43:49.986Z,60.57
2022-11-17T20:46:17.614Z,60.81
2022-11-17T20:48:44.880Z,60.73
2022-11-17T20:51:14.982Z,60.74
2022-11-17T20:53:42.038Z,60.70
2022-11-17T20:56:10.423Z,60.68
2022-11-17T20:58:37.409Z,60.66
2022-11-17T21:01:16.033Z,60.52
2022-11-17T21:03:43.658Z,60.64
2022-11-17T21:06:11.431Z,60.37
2022-11-17T21:08:40.047Z,60.06
2022-11-17T21:11:09.913Z,60.01
2022-11-17T21:13:37.969Z,59.91
2022-11-17T21:16:06.557Z,59.96
2022-11-17T21:18:34.104Z,60.20
2022-11-17T21:21:02.591Z,60.08
2022-11-17T21:23:29.298Z,60.28
2022-11-17T21:25:56.426Z,60.28
2022-11-17T21:28:23.354Z,60.26
2022-11-17T21:30:50.817Z,60.11
2022-11-17T21:33:17.723Z,60.16
2022-11-17T21:35:44.515Z,60.01
2022-11-17T21:38:11.389Z,59.99
2022-11-17T21:40:38.366Z,60.06
2022-11-17T21:43:05.215Z,59.85
2022-11-17T21:45:32.975Z,59.89
2022-11-17T21:47:59.899Z,59.76
2022-11-17T21:50:27.029Z,59.62
2022-11-17T21:52:53.789Z,59.97
2022-11-17T21:55:20.572Z,59.71
2022-11-17T21:57:50.499Z,59.92
2022-11-17T22:00:17.960Z,60.36
2022-11-17T22:02:44.761Z,60.44
2022-11-17T22:05:11.978Z,60.72
2022-11-17T22:07:39.010Z,60.53
2022-11-17T22:10:06.182Z,61.01
2022-11-17T22:12:33.109Z,60.93
2022-11-17T22:14:59.966Z,61.00
2022-11-17T22:17:26.938Z,60.94
2022-11-17T22:19:53.660Z,61.20
2022-11-17T22:22:20.443Z,60.92
2022-11-17T22:24:49.974Z,61.18
2022-11-17T22:27:16.946Z,61.66
2022-11-17T22:29:43.715Z,61.60
2022-11-17T22:32:10.689Z,61.80
2022-11-17T22:34:37.448Z,61.58
2022-11-17T22:37:04.224Z,61.84
2022-11-17T22:39:30.987Z,61.75
2022-11-17T22:41:57.713Z,61.88
2022-11-17T22:44:25.077Z,62.11
2022-11-17T22:46:51.941Z,61.83
2022-11-17T22:49:19.062Z,61.82
2022-11-17T22:52:04.173Z,61.82
2022-11-17T22:54:31.577Z,62.10
2022-11-17T22:56:58.781Z,61.92
2022-11-17T22:59:27.222Z,62.02
2022-11-17T23:01:54.530Z,62.17
2022-11-17T23:04:23.137Z,61.99
2022-11-17T23:06:49.977Z,61.90
2022-11-17T23:09:16.759Z,62.05
2022-11-17T23:11:43.843Z,62.28
2022-11-17T23:14:12.741Z,62.20
2022-11-17T23:16:40.330Z,62.21
2022-11-17T23:19:09.465Z,62.32
2022-11-17T23:21:36.493Z,62.35
2022-11-17T23:24:04.396Z,62.14
2022-11-17T23:26:31.206Z,62.38
2022-11-17T23:28:58.293Z,62.32
2022-11-17T23:31:27.330Z,62.38
2022-11-17T23:33:54.243Z,62.56
2022-11-17T23:36:22.252Z,62.46
2022-11-17T23:38:50.533Z,62.34
2022-11-17T23:41:19.951Z,62.51
2022-11-17T23:43:46.918Z,62.60
2022-11-17T23:46:15.905Z,62.71
2022-11-17T23:48:43.968Z,62.49
2022-11-17T23:51:13.946Z,62.50
2022-11-17T23:53:41.531Z,62.54
2022-11-17T23:56:08.906Z,62.77
2022-11-17T23:58:36.135Z,62.62
